Time;durP1;ratioP1;P1;durP2;ratioP2;P2;SDS_P1;SDS_P2;PMS_P1;PMS_P2;Temp;Humidity;BMP_temperature;BMP_pressure;BME280_temperature;BME280_humidity;BME280_pressure;Samples;Min_cycle;Max_cycle;Signal;HPM_P1;HPM_P2
2022/09/20 00:00:48;;;;;;;20.13;8.65;;;;;;;;;;5049770;28;20033;-55
2022/09/20 00:03:15;;;;;;;17.73;8.15;;;;;;;;;;5049852;28;20017;-53
2022/09/20 00:05:42;;;;;;;16.95;8.35;;;;;;;;;;5034490;28;20029;-54
2022/09/20 00:08:11;;;;;;;18.98;7.72;;;;;;;;;;5033208;28;20026;-61
2022/09/20 00:10:38;;;;;;;16.20;7.82;;;;;;;;;;5034383;28;20044;-56
2022/09/20 00:13:05;;;;;;;24.92;9.05;;;;;;;;;;5034250;28;20385;-56
2022/09/20 00:15:31;;;;;;;19.42;8.20;;;;;;;;;;5034055;28;20103;-55
2022/09/20 00:17:57;;;;;;;21.50;8.50;;;;;;;;;;5048821;28;20022;-59
2022/09/20 00:20:23;;;;;;;20.38;8.50;;;;;;;;;;5034602;28;20036;-58
2022/09/20 00:22:49;;;;;;;18.63;8.55;;;;;;;;;;5049528;28;20028;-57
2022/09/20 00:25:19;;;;;;;20.98;8.50;;;;;;;;;;5033713;28;20025;-57
2022/09/20 00:27:46;;;;;;;21.77;8.63;;;;;;;;;;5048604;28;20497;-60
2022/09/20 00:30:13;;;;;;;19.48;8.52;;;;;;;;;;5034392;28;20442;-58
2022/09/20 00:32:39;;;;;;;19.73;8.27;;;;;;;;;;5034054;28;20113;-60
2022/09/20 00:35:12;;;;;;;19.35;8.70;;;;;;;;;;5049209;28;20044;-53
2022/09/20 00:37:39;;;;;;;17.92;8.65;;;;;;;;;;5033223;28;20030;-55
2022/09/20 00:40:06;;;;;;;19.60;8.52;;;;;;;;;;5034125;28;20032;-57
2022/09/20 00:42:33;;;;;;;21.63;8.50;;;;;;;;;;5033765;28;20041;-54
2022/09/20 00:44:59;;;;;;;20.38;9.02;;;;;;;;;;5033750;28;20029;-58
2022/09/20 00:47:32;;;;;;;25.05;9.95;;;;;;;;;;5032760;28;20497;-51
2022/09/20 00:50:16;;;;;;;21.27;9.30;;;;;;;;;;5033676;28;20033;-61
2022/09/20 00:52:45;;;;;;;19.67;9.25;;;;;;;;;;5049072;28;20033;-59
2022/09/20 00:55:11;;;;;;;22.73;9.40;;;;;;;;;;5033412;28;20514;-57
2022/09/20 00:57:37;;;;;;;22.35;9.68;;;;;;;;;;5032520;28;20025;-57
2022/09/20 01:00:07;;;;;;;18.95;9.63;;;;;;;;;;5033226;28;20021;-56
2022/09/20 01:02:34;;;;;;;16.90;8.50;;;;;;;;;;5033104;28;20041;-59
2022/09/20 01:05:00;;;;;;;23.45;9.77;;;;;;;;;;5033009;28;20040;-56
2022/09/20 01:07:26;;;;;;;18.70;8.93;;;;;;;;;;5032142;28;20427;-56
2022/09/20 01:09:53;;;;;;;21.70;9.00;;;;;;;;;;5033178;28;20543;-59
2022/09/20 01:12:21;;;;;;;26.25;9.57;;;;;;;;;;5033112;28;20387;-59
2022/09/20 01:14:48;;;;;;;17.38;8.30;;;;;;;;;;5032878;28;20033;-53
2022/09/20 01:17:15;;;;;;;16.75;8.55;;;;;;;;;;5047552;28;20021;-57
2022/09/20 01:19:53;;;;;;;23.23;8.73;;;;;;;;;;5033089;28;20049;-55
2022/09/20 01:22:28;;;;;;;18.10;8.32;;;;;;;;;;5032822;28;20025;-57
2022/09/20 01:25:11;;;;;;;19.25;8.93;;;;;;;;;;5048082;28;20033;-56
2022/09/20 01:27:40;;;;;;;17.65;8.27;;;;;;;;;;5031955;28;20099;-52
2022/09/20 01:30:13;;;;;;;17.58;9.38;;;;;;;;;;5032918;28;20401;-56
2022/09/20 01:33:05;;;;;;;17.95;8.23;;;;;;;;;;5032674;28;20087;-58
2022/09/20 01:35:33;;;;;;;21.48;8.60;;;;;;;;;;5009539;28;20391;-57
2022/09/20 01:38:16;;;;;;;18.38;8.57;;;;;;;;;;5030982;28;20547;-51
2022/09/20 01:41:02;;;;;;;19.50;9.05;;;;;;;;;;5032680;28;20108;-52
2022/09/20 01:43:36;;;;;;;17.88;7.82;;;;;;;;;;5032322;28;20025;-58
2022/09/20 01:46:22;;;;;;;19.27;7.50;;;;;;;;;;5032511;28;20025;-58
2022/09/20 01:48:50;;;;;;;15.63;8.20;;;;;;;;;;5031706;28;20103;-59
2022/09/20 01:51:36;;;;;;;25.58;9.30;;;;;;;;;;5047900;28;20093;-53
2022/09/20 01:54:17;;;;;;;19.88;8.70;;;;;;;;;;5020671;28;20033;-58
2022/09/20 01:57:02;;;;;;;17.55;8.45;;;;;;;;;;5032151;28;20378;-55
2022/09/20 01:59:46;;;;;;;18.33;8.20;;;;;;;;;;5031531;28;20029;-51
2022/09/20 02:02:33;;;;;;;22.08;8.77;;;;;;;;;;5032248;28;20036;-56
2022/09/20 02:05:08;;;;;;;16.50;8.38;;;;;;;;;;5020815;28;20041;-52
2022/09/20 02:07:40;;;;;;;16.52;8.63;;;;;;;;;;5031490;28;20519;-55
2022/09/20 02:10:16;;;;;;;20.55;8.55;;;;;;;;;;5032691;28;20025;-53
2022/09/20 02:13:06;;;;;;;20.40;8.38;;;;;;;;;;5032388;28;20026;-57
2022/09/20 02:15:44;;;;;;;23.77;8.70;;;;;;;;;;5047591;28;20025;-56
2022/09/20 02:18:25;;;;;;;17.73;8.80;;;;;;;;;;5031450;28;20033;-57
2022/09/20 02:20:54;;;;;;;22.73;8.88;;;;;;;;;;5032016;28;20049;-57
2022/09/20 02:23:39;;;;;;;20.75;8.50;;;;;;;;;;5047381;28;20108;-54
2022/09/20 02:26:09;;;;;;;17.70;7.95;;;;;;;;;;5032135;28;20030;-51
2022/09/20 02:28:44;;;;;;;18.33;8.50;;;;;;;;;;5031179;28;20032;-58
2022/09/20 02:31:19;;;;;;;25.60;9.95;;;;;;;;;;5031987;28;20410;-56
2022/09/20 02:34:04;;;;;;;18.85;8.40;;;;;;;;;;5031806;28;20036;-58
2022/09/20 02:36:38;;;;;;;16.27;8.43;;;;;;;;;;5031682;28;20131;-51
2022/09/20 02:39:20;;;;;;;19.85;9.10;;;;;;;;;;5046565;28;20466;-57
2022/09/20 02:41:55;;;;;;;20.15;9.38;;;;;;;;;;5031933;28;20075;-56
2022/09/20 02:44:27;;;;;;;16.70;8.45;;;;;;;;;;5032056;28;20059;-59
2022/09/20 02:46:58;;;;;;;18.00;8.85;;;;;;;;;;5031908;28;20048;-57
2022/09/20 02:49:43;;;;;;;21.48;8.95;;;;;;;;;;5035106;28;20014;-56
2022/09/20 02:52:15;;;;;;;16.55;8.23;;;;;;;;;;5036491;28;20026;-55
2022/09/20 02:55:03;;;;;;;18.38;8.82;;;;;;;;;;5051719;28;20132;-56
2022/09/20 02:57:29;;;;;;;18.58;8.65;;;;;;;;;;5034669;28;20428;-55
2022/09/20 03:00:01;;;;;;;18.88;8.48;;;;;;;;;;5035462;28;20071;-55
2022/09/20 03:02:27;;;;;;;22.15;9.95;;;;;;;;;;5050559;28;20021;-52
2022/09/20 03:04:55;;;;;;;22.45;8.50;;;;;;;;;;5035262;28;20045;-57
2022/09/20 03:07:45;;;;;;;17.65;8.85;;;;;;;;;;5032938;28;20100;-58
2022/09/20 03:10:11;;;;;;;20.38;8.30;;;;;;;;;;5049444;28;20034;-57
2022/09/20 03:12:47;;;;;;;18.92;8.70;;;;;;;;;;5028445;28;20029;-53
2022/09/20 03:15:32;;;;;;;18.73;8.00;;;;;;;;;;5034114;28;20116;-56
2022/09/20 03:18:07;;;;;;;18.50;8.40;;;;;;;;;;5049134;28;20033;-53
2022/09/20 03:20:52;;;;;;;15.05;7.80;;;;;;;;;;5035184;28;20052;-56
2022/09/20 03:23:36;;;;;;;18.98;8.65;;;;;;;;;;5035136;28;20026;-51
2022/09/20 03:26:10;;;;;;;17.15;8.20;;;;;;;;;;5035675;28;20025;-52
2022/09/20 03:28:52;;;;;;;25.08;9.48;;;;;;;;;;5049799;28;20053;-53
2022/09/20 03:31:21;;;;;;;18.85;8.90;;;;;;;;;;5035217;28;20036;-56
2022/09/20 03:33:53;;;;;;;18.98;8.60;;;;;;;;;;5034830;28;20022;-56
2022/09/20 03:36:34;;;;;;;19.27;9.13;;;;;;;;;;5049837;28;20090;-53
2022/09/20 03:39:00;;;;;;;18.77;8.73;;;;;;;;;;5049612;28;20429;-54
2022/09/20 03:41:44;;;;;;;20.33;8.60;;;;;;;;;;5035096;28;20100;-50
2022/09/20 03:44:29;;;;;;;22.77;9.00;;;;;;;;;;5034237;28;20079;-53
2022/09/20 03:47:08;;;;;;;17.27;8.38;;;;;;;;;;5034554;28;20025;-54
2022/09/20 03:49:34;;;;;;;17.80;8.85;;;;;;;;;;5034627;28;20100;-56
2022/09/20 03:52:05;;;;;;;18.92;9.10;;;;;;;;;;5034588;28;20052;-54
2022/09/20 03:54:47;;;;;;;19.95;9.00;;;;;;;;;;5049860;28;20029;-56
2022/09/20 03:57:26;;;;;;;17.42;8.70;;;;;;;;;;5049128;28;20051;-56
2022/09/20 03:59:53;;;;;;;18.00;9.40;;;;;;;;;;5033731;28;20021;-57
2022/09/20 04:02:24;;;;;;;19.48;9.23;;;;;;;;;;5035991;28;20017;-59
2022/09/20 04:05:02;;;;;;;18.67;8.88;;;;;;;;;;5050065;28;20053;-55
2022/09/20 04:07:28;;;;;;;24.08;9.05;;;;;;;;;;5048959;28;20497;-56
2022/09/20 04:10:13;;;;;;;17.00;8.98;;;;;;;;;;5034367;28;20076;-56
2022/09/20 04:12:50;;;;;;;21.73;9.82;;;;;;;;;;5028720;28;20025;-56
2022/09/20 04:15:29;;;;;;;19.85;9.30;;;;;;;;;;5034331;28;20036;-54
2022/09/20 04:18:03;;;;;;;19.10;10.40;;;;;;;;;;5033256;28;20018;-54
2022/09/20 04:20:50;;;;;;;20.88;10.00;;;;;;;;;;5049498;28;20025;-57
2022/09/20 04:23:35;;;;;;;19.83;10.35;;;;;;;;;;5034145;28;20017;-57
2022/09/20 04:26:02;;;;;;;21.30;10.00;;;;;;;;;;5033768;28;20037;-53
2022/09/20 04:28:34;;;;;;;19.73;9.52;;;;;;;;;;5033058;28;20436;-50
2022/09/20 04:31:03;;;;;;;22.73;9.57;;;;;;;;;;5033854;28;20405;-52
2022/09/20 04:33:33;;;;;;;19.77;9.23;;;;;;;;;;5033727;28;20474;-54
2022/09/20 04:36:28;;;;;;;18.13;9.60;;;;;;;;;;5033681;28;20029;-58
2022/09/20 04:39:13;;;;;;;19.02;9.10;;;;;;;;;;5064964;28;20029;-52
2022/09/20 04:41:51;;;;;;;19.20;9.20;;;;;;;;;;5033819;28;20104;-54
2022/09/20 04:44:51;;;;;;;18.75;8.98;;;;;;;;;;5033627;28;20397;-58
2022/09/20 04:47:35;;;;;;;18.90;9.63;;;;;;;;;;5000259;28;20061;-56
2022/09/20 04:50:09;;;;;;;27.95;11.80;;;;;;;;;;5033771;28;20470;-55
2022/09/20 04:52:47;;;;;;;21.05;11.00;;;;;;;;;;5033504;28;20034;-53
2022/09/20 04:55:30;;;;;;;22.15;9.93;;;;;;;;;;5048977;28;20021;-56
2022/09/20 04:57:56;;;;;;;17.67;10.32;;;;;;;;;;5032231;28;20447;-54
2022/09/20 05:00:23;;;;;;;24.40;10.50;;;;;;;;;;5033312;28;20022;-56
2022/09/20 05:03:10;;;;;;;20.73;11.35;;;;;;;;;;5033193;28;20032;-57
2022/09/20 05:05:54;;;;;;;23.75;10.82;;;;;;;;;;5033264;28;20485;-56
2022/09/20 05:08:20;;;;;;;19.70;10.80;;;;;;;;;;5032775;28;20025;-55
2022/09/20 05:10:56;;;;;;;18.95;10.50;;;;;;;;;;5033182;28;20079;-56
2022/09/20 05:13:26;;;;;;;20.55;10.55;;;;;;;;;;5048659;28;20036;-57
2022/09/20 05:16:03;;;;;;;19.52;10.23;;;;;;;;;;5033194;28;20025;-57
2022/09/20 05:18:47;;;;;;;20.75;10.43;;;;;;;;;;5032540;28;20056;-59
2022/09/20 05:21:13;;;;;;;21.50;10.45;;;;;;;;;;5033605;28;20036;-54
2022/09/20 05:23:48;;;;;;;21.35;10.18;;;;;;;;;;5032523;28;20475;-51
2022/09/20 05:26:21;;;;;;;21.52;10.68;;;;;;;;;;5033001;28;20053;-57
2022/09/20 05:29:00;;;;;;;23.58;11.27;;;;;;;;;;5047663;28;20056;-55
2022/09/20 05:31:32;;;;;;;24.05;12.07;;;;;;;;;;5032935;28;20029;-54
2022/09/20 05:33:58;;;;;;;25.58;11.20;;;;;;;;;;5032658;28;20033;-57
2022/09/20 05:36:43;;;;;;;20.83;10.52;;;;;;;;;;5032769;28;20044;-60
2022/09/20 05:39:28;;;;;;;22.95;11.65;;;;;;;;;;5046461;22;20056;-55
2022/09/20 05:41:54;;;;;;;21.55;10.15;;;;;;;;;;5011280;28;20017;-57
2022/09/20 05:44:39;;;;;;;24.38;11.77;;;;;;;;;;5011836;28;20546;-56
2022/09/20 05:47:23;;;;;;;22.90;11.52;;;;;;;;;;5012207;28;20030;-50
2022/09/20 05:50:08;;;;;;;20.90;11.73;;;;;;;;;;5012440;28;20108;-56
2022/09/20 05:52:47;;;;;;;21.63;10.63;;;;;;;;;;5012201;28;20103;-54
2022/09/20 05:55:23;;;;;;;23.83;10.70;;;;;;;;;;5012138;28;20536;-59
2022/09/20 05:57:55;;;;;;;19.15;10.18;;;;;;;;;;5011273;28;20033;-55
2022/09/20 06:00:23;;;;;;;20.35;10.95;;;;;;;;;;5011024;28;20026;-57
2022/09/20 06:03:08;;;;;;;21.67;11.07;;;;;;;;;;5011786;28;20509;-60
2022/09/20 06:05:52;;;;;;;24.73;11.13;;;;;;;;;;5010530;28;20397;-58
2022/09/20 06:08:25;;;;;;;24.35;11.90;;;;;;;;;;5009716;28;20026;-57
2022/09/20 06:10:51;;;;;;;20.42;11.35;;;;;;;;;;5011696;28;20022;-54
2022/09/20 06:13:35;;;;;;;27.38;11.27;;;;;;;;;;5011820;28;20386;-58
2022/09/20 06:16:03;;;;;;;22.00;11.20;;;;;;;;;;5011028;28;20033;-56
2022/09/20 06:18:30;;;;;;;21.80;11.10;;;;;;;;;;5009585;28;20074;-58
2022/09/20 06:21:05;;;;;;;21.95;10.93;;;;;;;;;;5011071;28;20026;-55
2022/09/20 06:23:31;;;;;;;20.65;10.77;;;;;;;;;;5016017;28;20179;-56
2022/09/20 06:26:18;;;;;;;18.38;10.45;;;;;;;;;;5016795;28;20098;-56
2022/09/20 06:28:50;;;;;;;19.90;10.15;;;;;;;;;;5016493;28;20088;-52
2022/09/20 06:31:17;;;;;;;23.65;10.23;;;;;;;;;;5018336;28;20084;-58
2022/09/20 06:33:51;;;;;;;23.25;12.30;;;;;;;;;;5018332;28;20030;-57
2022/09/20 06:42:10;;;;;;;20.52;9.63;;;;;;;;;;5018635;28;20056;-55
2022/09/20 06:44:42;;;;;;;21.85;10.57;;;;;;;;;;5017089;28;20022;-54
2022/09/20 06:47:11;;;;;;;19.60;9.93;;;;;;;;;;5018157;28;20033;-60
2022/09/20 06:49:40;;;;;;;20.83;10.25;;;;;;;;;;5016961;28;20136;-57
2022/09/20 06:52:07;;;;;;;22.70;9.40;;;;;;;;;;5018084;28;20025;-57
2022/09/20 06:54:33;;;;;;;21.23;10.57;;;;;;;;;;5017124;28;20026;-56
2022/09/20 06:57:02;;;;;;;18.23;9.82;;;;;;;;;;5018501;28;20080;-53
2022/09/20 06:59:28;;;;;;;20.63;9.40;;;;;;;;;;5017744;28;20097;-54
2022/09/20 07:01:54;;;;;;;17.90;9.68;;;;;;;;;;5018267;28;20018;-56
2022/09/20 07:04:25;;;;;;;17.13;8.90;;;;;;;;;;5017124;28;20056;-58
2022/09/20 07:06:52;;;;;;;22.17;8.60;;;;;;;;;;5018169;28;20045;-55
2022/09/20 07:09:18;;;;;;;25.38;9.25;;;;;;;;;;5017367;28;20029;-55
2022/09/20 07:11:45;;;;;;;18.13;8.20;;;;;;;;;;5018100;28;20029;-55
2022/09/20 07:14:11;;;;;;;17.13;8.50;;;;;;;;;;5018025;28;20106;-54
2022/09/20 07:16:38;;;;;;;18.60;9.50;;;;;;;;;;5016751;28;20026;-64
2022/09/20 07:19:05;;;;;;;18.50;10.05;;;;;;;;;;5017136;28;20026;-64
2022/09/20 07:21:31;;;;;;;20.48;9.90;;;;;;;;;;5018178;28;20490;-65
2022/09/20 07:23:57;;;;;;;18.42;10.07;;;;;;;;;;5022938;28;20052;-64
2022/09/20 07:26:24;;;;;;;18.02;9.75;;;;;;;;;;5037976;28;20029;-65
2022/09/20 07:28:52;;;;;;;22.50;10.50;;;;;;;;;;5036942;28;20104;-64
2022/09/20 07:31:19;;;;;;;26.33;10.70;;;;;;;;;;5036705;28;20409;-63
2022/09/20 07:33:45;;;;;;;18.55;9.38;;;;;;;;;;5035940;28;20037;-64
2022/09/20 07:36:11;;;;;;;17.73;9.98;;;;;;;;;;5033418;28;20021;-66
2022/09/20 07:38:38;;;;;;;17.77;9.93;;;;;;;;;;5034156;28;20056;-67
2022/09/20 07:41:04;;;;;;;17.35;9.75;;;;;;;;;;5035691;28;20037;-67
2022/09/20 07:43:31;;;;;;;15.95;9.77;;;;;;;;;;5036458;28;20032;-67
2022/09/20 07:45:58;;;;;;;18.55;9.85;;;;;;;;;;5034741;28;20529;-65
2022/09/20 07:48:25;;;;;;;15.93;10.07;;;;;;;;;;5034270;28;20397;-65
2022/09/20 07:50:58;;;;;;;17.13;10.10;;;;;;;;;;5034718;28;20027;-67
2022/09/20 07:53:24;;;;;;;22.08;10.30;;;;;;;;;;5036138;28;20032;-66
2022/09/20 07:56:00;;;;;;;17.52;9.77;;;;;;;;;;5034980;28;20056;-67
2022/09/20 07:58:27;;;;;;;18.05;9.48;;;;;;;;;;5033609;28;20022;-67
2022/09/20 08:00:55;;;;;;;16.30;9.95;;;;;;;;;;5033999;28;20049;-67
2022/09/20 08:03:21;;;;;;;15.95;10.05;;;;;;;;;;5035187;28;20014;-66
2022/09/20 08:05:49;;;;;;;17.70;9.82;;;;;;;;;;5035240;28;20030;-67
2022/09/20 08:08:15;;;;;;;16.55;9.82;;;;;;;;;;5035249;28;20021;-68
2022/09/20 08:10:41;;;;;;;17.35;10.13;;;;;;;;;;5034508;28;20435;-67
2022/09/20 08:13:08;;;;;;;15.73;10.20;;;;;;;;;;5034639;28;20035;-67
2022/09/20 08:15:34;;;;;;;18.30;10.00;;;;;;;;;;5033287;28;20401;-68
2022/09/20 08:18:00;;;;;;;22.02;10.10;;;;;;;;;;5032561;28;20021;-66
2022/09/20 08:20:26;;;;;;;16.48;9.40;;;;;;;;;;5033345;28;20021;-68
2022/09/20 08:22:54;;;;;;;20.02;9.95;;;;;;;;;;5034509;28;20029;-67
2022/09/20 08:25:20;;;;;;;16.15;10.00;;;;;;;;;;5034041;28;20540;-65
2022/09/20 08:27:52;;;;;;;17.92;10.57;;;;;;;;;;5033573;28;20393;-67
2022/09/20 08:30:18;;;;;;;16.63;10.90;;;;;;;;;;5034040;28;20029;-68
2022/09/20 08:32:44;;;;;;;18.33;10.50;;;;;;;;;;5033141;28;20387;-67
2022/09/20 08:35:10;;;;;;;16.77;10.30;;;;;;;;;;5032709;28;20025;-68
2022/09/20 08:37:37;;;;;;;21.60;10.60;;;;;;;;;;5033120;28;20445;-68
2022/09/20 08:40:03;;;;;;;18.15;10.48;;;;;;;;;;5034023;28;20064;-67
2022/09/20 08:42:31;;;;;;;17.23;10.40;;;;;;;;;;5032523;28;20148;-66
2022/09/20 08:44:59;;;;;;;19.02;10.65;;;;;;;;;;5034153;28;20537;-69
2022/09/20 08:47:36;;;;;;;15.53;10.00;;;;;;;;;;5033143;28;20036;-68
2022/09/20 08:50:06;;;;;;;16.92;10.60;;;;;;;;;;5032235;28;20075;-67
2022/09/20 08:52:35;;;;;;;17.55;10.43;;;;;;;;;;5032567;28;20029;-67
2022/09/20 08:55:02;;;;;;;21.85;11.07;;;;;;;;;;5033468;28;20025;-67
2022/09/20 08:57:30;;;;;;;16.52;10.50;;;;;;;;;;5032455;28;20061;-63
2022/09/20 08:59:58;;;;;;;18.23;10.50;;;;;;;;;;5032904;28;20032;-64
2022/09/20 09:02:24;;;;;;;19.10;10.37;;;;;;;;;;5033089;28;20032;-66
2022/09/20 09:04:52;;;;;;;16.60;10.23;;;;;;;;;;5032772;28;20533;-66
2022/09/20 09:07:20;;;;;;;17.80;10.35;;;;;;;;;;5030887;28;20061;-65
2022/09/20 09:09:47;;;;;;;17.77;10.77;;;;;;;;;;5032708;28;20028;-65
2022/09/20 09:12:17;;;;;;;16.73;10.15;;;;;;;;;;5033342;28;20478;-65
2022/09/20 09:14:56;;;;;;;17.08;9.93;;;;;;;;;;5032499;28;20041;-66
2022/09/20 09:17:23;;;;;;;16.50;10.20;;;;;;;;;;5031798;28;20048;-66
2022/09/20 09:19:54;;;;;;;17.20;10.10;;;;;;;;;;5032422;28;20018;-62
2022/09/20 09:22:23;;;;;;;16.45;10.40;;;;;;;;;;5031653;28;20017;-63
2022/09/20 09:25:08;;;;;;;17.88;10.85;;;;;;;;;;5031356;28;20485;-66
2022/09/20 09:27:34;;;;;;;17.13;10.27;;;;;;;;;;5030520;28;20405;-67
2022/09/20 09:30:00;;;;;;;17.75;10.55;;;;;;;;;;5031489;28;20398;-67
2022/09/20 09:32:28;;;;;;;16.50;10.18;;;;;;;;;;5030305;28;20026;-65
2022/09/20 09:34:54;;;;;;;16.80;10.13;;;;;;;;;;5031446;28;20092;-65
2022/09/20 09:37:29;;;;;;;20.58;10.90;;;;;;;;;;5030750;28;20443;-65
2022/09/20 09:40:16;;;;;;;17.38;10.65;;;;;;;;;;5032831;28;20367;-66
2022/09/20 09:42:49;;;;;;;16.98;10.25;;;;;;;;;;5032298;28;20021;-63
2022/09/20 09:45:37;;;;;;;18.83;10.27;;;;;;;;;;5032353;28;20028;-65
2022/09/20 09:48:16;;;;;;;17.60;10.05;;;;;;;;;;5031538;28;20093;-65
2022/09/20 09:50:42;;;;;;;17.50;10.27;;;;;;;;;;5031014;28;20033;-65
2022/09/20 09:53:11;;;;;;;16.92;10.05;;;;;;;;;;5032281;28;20044;-65
2022/09/20 09:55:56;;;;;;;18.48;10.38;;;;;;;;;;5030763;28;20030;-65
2022/09/20 09:58:23;;;;;;;18.80;10.70;;;;;;;;;;5030898;28;20480;-65
2022/09/20 10:00:52;;;;;;;16.67;10.38;;;;;;;;;;5032278;28;20026;-63
2022/09/20 10:03:28;;;;;;;16.98;11.80;;;;;;;;;;5030884;28;20021;-64
2022/09/20 10:06:04;;;;;;;18.00;10.30;;;;;;;;;;5030862;28;20033;-64
2022/09/20 10:08:34;;;;;;;14.88;10.45;;;;;;;;;;5028814;28;20162;-63
2022/09/20 10:11:12;;;;;;;16.98;10.70;;;;;;;;;;5031643;28;20033;-64
2022/09/20 10:13:41;;;;;;;18.65;10.77;;;;;;;;;;5032007;28;20078;-65
2022/09/20 10:16:17;;;;;;;16.65;10.48;;;;;;;;;;5028289;28;20537;-66
2022/09/20 10:18:49;;;;;;;15.98;10.40;;;;;;;;;;5029159;28;20489;-64
2022/09/20 10:21:24;;;;;;;16.65;10.38;;;;;;;;;;5030589;28;20179;-63
2022/09/20 10:24:29;;;;;;;15.65;9.90;;;;;;;;;;5031906;28;20045;-65
2022/09/20 10:26:55;;;;;;;17.48;10.68;;;;;;;;;;5029299;28;20033;-65
2022/09/20 10:29:30;;;;;;;15.73;10.45;;;;;;;;;;5024180;28;20501;-66
2022/09/20 10:32:15;;;;;;;16.55;10.65;;;;;;;;;;5031267;28;20026;-64
2022/09/20 10:35:00;;;;;;;15.30;10.38;;;;;;;;;;5031122;28;20037;-64
2022/09/20 10:37:26;;;;;;;15.85;9.98;;;;;;;;;;5030607;28;20390;-66
2022/09/20 10:40:13;;;;;;;15.85;10.68;;;;;;;;;;5031652;28;20052;-64
2022/09/20 10:45:37;;;;;;;18.80;11.70;;;;;;;;;;5031396;28;20052;-66
2022/09/20 10:48:07;;;;;;;19.33;11.35;;;;;;;;;;5030601;28;20048;-64
2022/09/20 10:50:51;;;;;;;16.00;11.20;;;;;;;;;;5031550;28;20021;-65
2022/09/20 10:53:35;;;;;;;17.10;11.23;;;;;;;;;;5031424;28;20029;-65
2022/09/20 10:56:04;;;;;;;17.20;11.07;;;;;;;;;;5031452;28;20120;-65
2022/09/20 10:58:30;;;;;;;;;;;;;;;;;;5029883;28;20071;-65
2022/09/20 11:00:56;;;;;;;21.77;11.40;;;;;;;;;;5031337;28;19905;-65
2022/09/20 11:03:37;;;;;;;15.88;11.02;;;;;;;;;;5031143;28;20481;-64
2022/09/20 11:06:06;;;;;;;19.50;11.20;;;;;;;;;;5031154;28;20037;-66
2022/09/20 11:08:34;;;;;;;16.02;11.15;;;;;;;;;;5029307;28;20052;-65
2022/09/20 11:11:03;;;;;;;17.05;11.15;;;;;;;;;;5034591;28;20025;-65
2022/09/20 11:13:33;;;;;;;15.40;10.70;;;;;;;;;;5034709;28;20022;-66
2022/09/20 11:16:05;;;;;;;18.08;11.38;;;;;;;;;;5034718;28;20055;-68
2022/09/20 11:18:40;;;;;;;16.23;10.90;;;;;;;;;;5033678;28;20095;-65
2022/09/20 11:21:25;;;;;;;16.52;11.70;;;;;;;;;;5034664;28;20466;-62
2022/09/20 11:23:51;;;;;;;18.20;11.70;;;;;;;;;;5034398;28;20481;-65
2022/09/20 11:26:41;;;;;;;16.30;11.13;;;;;;;;;;5034620;28;20026;-65
2022/09/20 11:29:31;;;;;;;16.98;11.93;;;;;;;;;;5032265;28;20246;-66
2022/09/20 11:32:12;;;;;;;16.23;11.10;;;;;;;;;;5034593;28;20024;-65
2022/09/20 11:34:44;;;;;;;18.00;10.55;;;;;;;;;;5034352;28;20030;-66
2022/09/20 11:37:10;;;;;;;19.02;10.80;;;;;;;;;;5033922;28;20021;-64
2022/09/20 11:39:36;;;;;;;15.90;10.73;;;;;;;;;;5044933;22;20045;-67
2022/09/20 11:42:03;;;;;;;17.08;11.23;;;;;;;;;;5014189;28;20116;-67
2022/09/20 11:44:31;;;;;;;16.02;10.88;;;;;;;;;;5015493;28;20506;-67
2022/09/20 11:47:05;;;;;;;17.38;11.30;;;;;;;;;;5014833;28;20033;-67
2022/09/20 11:49:40;;;;;;;17.52;11.60;;;;;;;;;;5013935;28;20582;-67
2022/09/20 11:52:25;;;;;;;18.23;11.40;;;;;;;;;;5013668;28;20114;-68
2022/09/20 11:54:53;;;;;;;16.83;11.05;;;;;;;;;;5014925;28;20076;-66
2022/09/20 11:57:32;;;;;;;15.93;11.40;;;;;;;;;;5015658;28;20052;-72
2022/09/20 12:00:10;;;;;;;16.10;11.70;;;;;;;;;;5017685;28;20026;-75
2022/09/20 12:02:36;;;;;;;16.13;11.38;;;;;;;;;;5011603;28;20030;-65
2022/09/20 12:05:06;;;;;;;16.73;11.15;;;;;;;;;;5014685;28;20032;-68
2022/09/20 12:07:35;;;;;;;16.55;11.10;;;;;;;;;;5014132;28;20026;-67
2022/09/20 12:10:07;;;;;;;16.63;11.20;;;;;;;;;;5014074;28;20121;-66
2022/09/20 12:12:41;;;;;;;16.55;11.77;;;;;;;;;;5015042;28;20124;-67
2022/09/20 12:15:27;;;;;;;18.45;12.00;;;;;;;;;;5014997;28;20486;-67
2022/09/20 12:17:56;;;;;;;16.50;12.27;;;;;;;;;;5012295;28;20063;-66
2022/09/20 12:20:33;;;;;;;19.85;12.20;;;;;;;;;;5014458;28;20054;-66
2022/09/20 12:23:17;;;;;;;15.68;12.20;;;;;;;;;;5015311;28;20077;-67
2022/09/20 12:26:02;;;;;;;16.95;12.02;;;;;;;;;;5014526;28;20033;-67
2022/09/20 12:28:35;;;;;;;18.33;11.82;;;;;;;;;;5012712;28;20033;-67
2022/09/20 12:31:20;;;;;;;17.85;11.85;;;;;;;;;;5013498;28;20030;-67
2022/09/20 12:33:55;;;;;;;18.13;12.38;;;;;;;;;;5014658;28;20025;-67
2022/09/20 12:36:21;;;;;;;16.60;11.68;;;;;;;;;;5014553;28;20026;-66
2022/09/20 12:38:50;;;;;;;16.58;12.02;;;;;;;;;;5012103;28;20121;-68
2022/09/20 12:41:18;;;;;;;16.50;11.73;;;;;;;;;;5012718;28;20029;-66
2022/09/20 12:43:49;;;;;;;15.70;12.38;;;;;;;;;;5012772;28;20026;-67
2022/09/20 12:46:20;;;;;;;18.52;12.38;;;;;;;;;;5013683;28;20037;-67
2022/09/20 12:48:46;;;;;;;17.08;12.35;;;;;;;;;;5012838;28;20026;-67
2022/09/20 12:54:02;;;;;;;15.97;12.17;;;;;;;;;;5013779;28;20036;-69
2022/09/20 12:56:28;;;;;;;16.70;12.10;;;;;;;;;;5010424;28;20083;-67
2022/09/20 12:58:55;;;;;;;17.05;12.48;;;;;;;;;;5011735;28;20030;-69
2022/09/20 13:01:21;;;;;;;17.02;12.35;;;;;;;;;;5013804;28;20109;-67
2022/09/20 13:03:48;;;;;;;17.85;12.60;;;;;;;;;;5012559;28;20026;-67
2022/09/20 13:06:16;;;;;;;18.15;12.48;;;;;;;;;;5011607;28;20021;-66
2022/09/20 13:08:48;;;;;;;17.35;12.48;;;;;;;;;;5012267;28;20502;-67
2022/09/20 13:11:22;;;;;;;16.10;12.27;;;;;;;;;;5011847;28;20034;-67
2022/09/20 13:13:57;;;;;;;18.02;12.40;;;;;;;;;;5013429;28;20041;-68
2022/09/20 13:16:35;;;;;;;16.58;12.52;;;;;;;;;;5013637;28;20032;-66
2022/09/20 13:19:04;;;;;;;17.38;12.25;;;;;;;;;;5012813;28;20022;-67
2022/09/20 13:21:31;;;;;;;16.48;12.38;;;;;;;;;;5011482;28;20386;-67
2022/09/20 13:23:58;;;;;;;18.63;12.85;;;;;;;;;;5015003;28;20022;-67
2022/09/20 13:26:28;;;;;;;16.35;12.10;;;;;;;;;;5012820;28;20486;-66
2022/09/20 13:28:55;;;;;;;16.45;12.18;;;;;;;;;;5011202;28;20141;-66
2022/09/20 13:31:23;;;;;;;18.40;12.10;;;;;;;;;;5011534;28;20033;-67
2022/09/20 13:33:49;;;;;;;16.83;12.00;;;;;;;;;;5013372;28;20034;-67
2022/09/20 13:36:20;;;;;;;18.15;11.98;;;;;;;;;;5012924;28;20026;-67
2022/09/20 13:38:48;;;;;;;16.40;12.13;;;;;;;;;;5011359;28;20061;-64
2022/09/20 13:41:15;;;;;;;17.65;11.82;;;;;;;;;;5012692;28;20049;-65
2022/09/20 13:43:46;;;;;;;18.17;11.75;;;;;;;;;;5013007;28;20034;-68
2022/09/20 13:46:16;;;;;;;15.95;12.00;;;;;;;;;;5011150;28;20555;-65
2022/09/20 13:48:43;;;;;;;20.80;11.70;;;;;;;;;;5010770;28;20029;-66
2022/09/20 13:51:22;;;;;;;15.93;11.38;;;;;;;;;;5012505;28;20030;-65
2022/09/20 13:53:48;;;;;;;20.15;11.88;;;;;;;;;;5013059;28;20030;-65
2022/09/20 13:56:20;;;;;;;15.48;11.35;;;;;;;;;;5012339;28;20033;-65
2022/09/20 13:58:47;;;;;;;16.13;11.30;;;;;;;;;;5010125;28;20029;-65
2022/09/20 14:01:33;;;;;;;16.80;12.25;;;;;;;;;;5012375;28;20032;-64
2022/09/20 14:04:07;;;;;;;17.17;11.07;;;;;;;;;;5009778;28;20037;-66
2022/09/20 14:06:33;;;;;;;15.30;11.13;;;;;;;;;;5012859;28;20036;-66
2022/09/20 14:09:01;;;;;;;18.08;11.48;;;;;;;;;;5011333;28;20116;-66
2022/09/20 14:11:31;;;;;;;15.30;11.10;;;;;;;;;;5012811;28;20056;-64
2022/09/20 14:14:01;;;;;;;18.27;11.40;;;;;;;;;;5012268;28;20026;-65
2022/09/20 14:16:29;;;;;;;17.27;11.60;;;;;;;;;;5011682;28;20026;-65
2022/09/20 14:18:57;;;;;;;20.75;12.38;;;;;;;;;;5011251;28;20109;-65
2022/09/20 14:21:24;;;;;;;15.40;11.80;;;;;;;;;;5013292;28;20018;-65
2022/09/20 14:23:56;;;;;;;16.50;11.65;;;;;;;;;;5011418;28;20022;-66
2022/09/20 14:26:23;;;;;;;16.60;11.57;;;;;;;;;;5009978;28;20026;-65
2022/09/20 14:28:49;;;;;;;15.82;11.55;;;;;;;;;;5009930;28;20081;-66
2022/09/20 14:31:16;;;;;;;18.42;11.88;;;;;;;;;;5012118;28;20097;-66
2022/09/20 14:33:45;;;;;;;15.53;11.67;;;;;;;;;;5011698;28;20026;-65
2022/09/20 14:36:15;;;;;;;17.40;11.82;;;;;;;;;;5011678;28;20060;-66
2022/09/20 14:38:43;;;;;;;17.20;11.18;;;;;;;;;;5009642;28;20046;-66
2022/09/20 14:41:09;;;;;;;16.90;11.57;;;;;;;;;;5012690;28;20489;-65
2022/09/20 14:43:35;;;;;;;15.20;11.15;;;;;;;;;;5012805;28;20026;-67
2022/09/20 14:46:03;;;;;;;16.92;11.20;;;;;;;;;;5015425;28;20057;-66
2022/09/20 14:48:34;;;;;;;16.73;11.00;;;;;;;;;;5014848;28;20076;-65
2022/09/20 14:51:13;;;;;;;15.98;10.70;;;;;;;;;;5016215;28;20573;-65
2022/09/20 14:53:39;;;;;;;15.68;10.80;;;;;;;;;;5016013;28;20049;-65
2022/09/20 14:56:05;;;;;;;17.95;11.00;;;;;;;;;;5015793;28;20034;-65
2022/09/20 14:58:51;;;;;;;16.35;11.00;;;;;;;;;;5013835;28;20117;-64
2022/09/20 15:01:24;;;;;;;15.30;11.00;;;;;;;;;;4664323;28;10000789;-65
2022/09/20 15:03:51;;;;;;;16.55;11.20;;;;;;;;;;5007989;28;20065;-66
2022/09/20 15:06:17;;;;;;;16.65;11.35;;;;;;;;;;4993466;28;20754;-65